Estación de Polizones INIA

Ultimos registro cada 15 minutos 73
Estación Fecha / Hora Temperatura Humedad Lluvia Velocidad Dirección Radiación Presion
73 Polizones INIA 09-05-2026 18:00 9 78,2 0 0 0 5 1009
72 Polizones INIA 09-05-2026 17:45 10,8 72,5 0 0 0 13 1009
71 Polizones INIA 09-05-2026 17:30 11,4 62,7 0 0,1 158 29 1009
70 Polizones INIA 09-05-2026 17:15 12 62,4 0 0,4 145 68 1010
69 Polizones INIA 09-05-2026 17:00 12,3 60,1 0 1,1 155 140 1010
68 Polizones INIA 09-05-2026 16:45 12,4 56,3 0 1,4 167 190 1010
67 Polizones INIA 09-05-2026 16:30 12,8 57,4 0 1,4 164 218 1011
66 Polizones INIA 09-05-2026 16:15 13,1 57,9 0 1,1 147 249 1011
65 Polizones INIA 09-05-2026 16:00 13,1 55 0 1,2 152 287 1011
64 Polizones INIA 09-05-2026 15:45 13,1 58,7 0 0,5 157 310 1011
63 Polizones INIA 09-05-2026 15:30 13 55,9 0 0,6 159 332 1011
62 Polizones INIA 09-05-2026 15:15 12,8 53,8 0 1,1 151 348 1011
61 Polizones INIA 09-05-2026 15:00 12,7 56,9 0 1,2 156 368 1011
60 Polizones INIA 09-05-2026 14:45 12,6 56,7 0 1 150 398 1011
59 Polizones INIA 09-05-2026 14:30 12,4 57,1 0 0,7 141 387 1011
58 Polizones INIA 09-05-2026 14:15 12,4 52,1 0 0,6 138 395 1011
57 Polizones INIA 09-05-2026 14:00 12,1 54,7 0 0,2 131 442 1011
56 Polizones INIA 09-05-2026 13:45 12 52,9 0 0,8 159 479 1012
55 Polizones INIA 09-05-2026 13:30 11,9 59,5 0 0,8 133 472 1012
54 Polizones INIA 09-05-2026 13:15 11,7 55,4 0 0,4 108 365 1012
53 Polizones INIA 09-05-2026 13:00 11,4 60 0 1 155 451 1012
52 Polizones INIA 09-05-2026 12:45 11,1 57,5 0 1,4 158 441 1013
51 Polizones INIA 09-05-2026 12:30 10,9 63,3 0 1 142 422 1013
50 Polizones INIA 09-05-2026 12:15 11,1 55,1 0 1,2 133 479 1013
49 Polizones INIA 09-05-2026 12:00 10,8 63 0 1,2 165 400 1013
48 Polizones INIA 09-05-2026 11:45 10,5 62,7 0 0,3 153 370 1013
47 Polizones INIA 09-05-2026 11:30 10,2 69,1 0 0,2 182 326 1013
46 Polizones INIA 09-05-2026 11:15 9,8 69,3 0 0,4 170 416 1013
45 Polizones INIA 09-05-2026 11:00 9 74,4 0 0 0 424 1014
44 Polizones INIA 09-05-2026 10:45 7,8 87,1 0 0 0 410 1014
43 Polizones INIA 09-05-2026 10:30 6,6 91,7 0 0 0 358 1014
42 Polizones INIA 09-05-2026 10:15 5,2 96,2 0 0 0 317 1014
41 Polizones INIA 09-05-2026 10:00 4 96,6 0 0 0 277 1014
40 Polizones INIA 09-05-2026 09:45 2,9 98 0 0 0 230 1014
39 Polizones INIA 09-05-2026 09:30 1,9 98,6 0 0 0 203 1014
38 Polizones INIA 09-05-2026 09:15 0,5 98,7 0,1 0 0 178 1015
37 Polizones INIA 09-05-2026 09:00 -0,6 98,3 0 0 0 112 1013
36 Polizones INIA 09-05-2026 08:45 -1,1 98,3 0 0 0 50 1013
35 Polizones INIA 09-05-2026 08:30 -1,4 97,9 0 0 0 18 1013
34 Polizones INIA 09-05-2026 08:15 -1,5 98 0 0 0 11 1013
33 Polizones INIA 09-05-2026 08:00 -1,4 98,1 0 0 0 6 1013
32 Polizones INIA 09-05-2026 07:45 -1,2 97,9 0 0 0 2 1013
31 Polizones INIA 09-05-2026 07:30 -0,8 97,7 0 0 0 0 1013
30 Polizones INIA 09-05-2026 07:15 -1,4 98 0 0 0 0 1013
29 Polizones INIA 09-05-2026 07:00 -1 97,4 0 0 0 0 1013
28 Polizones INIA 09-05-2026 06:45 -1 98 0 0 0 0 1013
27 Polizones INIA 09-05-2026 06:30 -1,3 98 0 0 0 0 1013
26 Polizones INIA 09-05-2026 06:15 -1,3 97,7 0 0 0 0 1013
25 Polizones INIA 09-05-2026 06:00 -1,2 97,7 0 0 0 0 1013
24 Polizones INIA 09-05-2026 05:45 -1,1 98 0 0 0 0 1013
23 Polizones INIA 09-05-2026 05:30 -1 97,8 0 0 0 0 1013
22 Polizones INIA 09-05-2026 05:15 -0,5 97,3 0 0 0 0 1013
21 Polizones INIA 09-05-2026 05:00 -0,4 98 0 0 0 0 1013
20 Polizones INIA 09-05-2026 04:45 -0,5 97,6 0 0 0 0 1013
19 Polizones INIA 09-05-2026 04:30 0 97,1 0 0 0 0 1013
18 Polizones INIA 09-05-2026 04:15 0,7 97,4 0 0 0 0 1013
17 Polizones INIA 09-05-2026 04:00 1 97,8 0 0 0 0 1014
16 Polizones INIA 09-05-2026 03:45 1 97,2 0 0 0 0 1014
15 Polizones INIA 09-05-2026 03:30 1,1 97,5 0 0 0 0 1014
14 Polizones INIA 09-05-2026 03:15 1,2 97,1 0 0 0 0 1014
13 Polizones INIA 09-05-2026 03:00 1,1 96,7 0 0 0 0 1014
12 Polizones INIA 09-05-2026 02:45 0,8 97,1 0 0 0 0 1014
11 Polizones INIA 09-05-2026 02:30 1,6 95,6 0 0 0 0 1014
10 Polizones INIA 09-05-2026 02:15 1,7 96,6 0 0 0 0 1014
9 Polizones INIA 09-05-2026 02:00 2 96,2 0 0 0 0 1014
8 Polizones INIA 09-05-2026 01:45 1,6 95,6 0 0 0 0 1014
7 Polizones INIA 09-05-2026 01:30 2,3 94,2 0 0 0 0 1014
6 Polizones INIA 09-05-2026 01:15 2,8 94,6 0 0 0 0 1014
5 Polizones INIA 09-05-2026 01:00 3,1 94,2 0 0 0 0 1014
4 Polizones INIA 09-05-2026 00:45 3,4 94 0 0 0 0 1014
3 Polizones INIA 09-05-2026 00:30 4 92,2 0 0 0 0 1014
2 Polizones INIA 09-05-2026 00:15 4,4 91,7 0 0 0 0 1014
1 Polizones INIA 09-05-2026 00:00 4,1 92,3 0 0 0 0 1014